Time;durP1;ratioP1;P1;durP2;ratioP2;P2;SDS_P1;SDS_P2;PMS_P1;PMS_P2;Temp;Humidity;BMP_temperature;BMP_pressure;BME280_temperature;BME280_humidity;BME280_pressure;Samples;Min_cycle;Max_cycle;Signal;HPM_P1;HPM_P2
2022/01/03 00:01:08;;;;;;;29.80;20.93;;;;;;;8.72;74.30;95027.88;5009921;28;20645;-77
2022/01/03 00:03:35;;;;;;;32.80;21.53;;;;;;;8.83;74.33;95035.50;5010332;28;20200;-76
2022/01/03 00:06:03;;;;;;;32.50;20.97;;;;;;;8.81;74.46;95037.38;5010119;28;20587;-76
2022/01/03 00:08:32;;;;;;;31.53;19.30;;;;;;;8.79;74.50;95023.91;4992766;28;20258;-76
2022/01/03 00:11:00;;;;;;;29.57;19.53;;;;;;;8.79;74.35;95029.81;5010103;28;20219;-75
2022/01/03 00:13:33;;;;;;;30.40;20.23;;;;;;;8.62;74.37;95022.66;5011055;28;20215;-77
2022/01/03 00:16:03;;;;;;;40.60;21.10;;;;;;;8.76;74.37;95024.16;5010654;28;20199;-80
2022/01/03 00:18:32;;;;;;;28.20;19.17;;;;;;;8.67;74.45;95001.91;5010351;28;20192;-77
2022/01/03 00:21:02;;;;;;;27.37;19.60;;;;;;;8.74;74.50;95013.28;5010030;28;20197;-78
2022/01/03 00:23:30;;;;;;;34.30;19.97;;;;;;;8.71;74.51;95009.22;5010389;28;20210;-75
2022/01/03 00:26:02;;;;;;;30.00;19.90;;;;;;;8.62;74.55;94986.16;5010927;28;20192;-79
2022/01/03 00:28:35;;;;;;;26.57;18.77;;;;;;;8.62;74.53;94981.06;5010933;28;20192;-79
2022/01/03 00:31:07;;;;;;;29.53;19.47;;;;;;;8.66;74.47;94993.47;5010216;28;20193;-79
2022/01/03 00:33:34;;;;;;;31.40;20.17;;;;;;;8.65;74.48;94996.94;5010078;28;20271;-78
2022/01/03 00:36:04;;;;;;;31.13;21.13;;;;;;;8.64;74.74;94989.44;5009778;28;20195;-78
2022/01/03 00:38:34;;;;;;;31.57;20.97;;;;;;;8.63;74.70;94995.44;5009981;28;20660;-77
2022/01/03 00:41:06;;;;;;;29.23;19.30;;;;;;;8.63;74.65;94997.97;5009929;28;20201;-77
2022/01/03 00:43:36;;;;;;;27.97;18.50;;;;;;;8.61;74.54;95013.41;4992706;28;20203;-78
2022/01/03 00:46:04;;;;;;;26.30;19.30;;;;;;;8.59;74.74;95020.34;5009570;28;20207;-78
2022/01/03 00:48:34;;;;;;;29.67;19.03;;;;;;;8.59;74.66;95022.09;5009973;28;20201;-76
2022/01/03 00:51:03;;;;;;;31.80;20.17;;;;;;;8.42;74.65;95015.72;5009631;28;20229;-80
2022/01/03 00:53:30;;;;;;;30.87;20.70;;;;;;;8.59;74.67;95038.19;5009939;28;20223;-78
2022/01/03 00:56:02;;;;;;;27.83;20.00;;;;;;;8.58;74.71;95015.38;5010176;28;20188;-81
2022/01/03 00:58:36;;;;;;;27.90;19.83;;;;;;;8.52;74.88;95004.72;5010166;28;20184;-78
2022/01/03 01:01:08;;;;;;;25.50;19.00;;;;;;;8.54;74.88;95009.69;5012448;28;20197;-78
2022/01/03 01:03:42;;;;;;;30.93;19.67;;;;;;;8.35;74.93;94968.69;4977952;28;20661;-76
2022/01/03 01:06:10;;;;;;;30.67;19.63;;;;;;;8.40;74.92;94959.78;4993427;28;20210;-76
2022/01/03 01:08:39;;;;;;;31.70;19.60;;;;;;;8.53;74.89;94969.84;4993865;28;20200;-77
2022/01/03 01:11:08;;;;;;;28.30;19.33;;;;;;;8.51;74.99;94967.44;4993101;28;20696;-78
2022/01/03 01:13:44;;;;;;;25.27;18.30;;;;;;;8.50;74.87;94963.25;4976239;28;20591;-77
2022/01/03 01:16:12;;;;;;;27.90;19.73;;;;;;;8.34;74.85;94937.31;4993677;28;20185;-76
2022/01/03 01:18:42;;;;;;;27.53;19.57;;;;;;;8.49;74.95;94964.16;4993503;28;20205;-76
2022/01/03 01:21:10;;;;;;;26.43;19.30;;;;;;;8.49;75.01;94955.72;4993291;28;20197;-76
2022/01/03 01:23:41;;;;;;;29.17;19.00;;;;;;;8.39;74.98;94945.44;4993803;28;20197;-76
2022/01/03 01:28:54;;;;;;;25.67;18.57;;;;;;;8.46;75.04;94966.97;4978988;28;20284;-75
2022/01/03 01:31:23;;;;;;;27.63;19.47;;;;;;;8.46;75.15;94966.13;4992948;28;20684;-75
2022/01/03 01:33:55;;;;;;;25.57;19.03;;;;;;;8.43;75.06;94964.66;4975871;28;20550;-75
2022/01/03 01:36:26;;;;;;;25.20;17.70;;;;;;;8.43;75.15;94959.56;4993429;28;20197;-78
2022/01/03 01:39:01;;;;;;;24.67;17.13;;;;;;;8.42;75.02;94950.31;4993131;28;20244;-77
2022/01/03 01:41:30;;;;;;;27.47;19.20;;;;;;;8.15;75.21;94909.06;4975533;28;20562;-77
2022/01/03 01:44:03;;;;;;;24.40;17.50;;;;;;;8.43;75.14;94958.75;4993062;28;20201;-76
2022/01/03 01:46:30;;;;;;;24.00;16.80;;;;;;;8.42;74.88;94952.00;4993307;28;20376;-76
2022/01/03 01:48:57;;;;;;;23.93;17.80;;;;;;;8.25;74.93;94920.19;4993256;28;20189;-77
2022/01/03 01:51:28;;;;;;;25.00;16.97;;;;;;;8.40;74.81;94939.41;4992566;28;20229;-75
2022/01/03 01:53:59;;;;;;;23.93;17.37;;;;;;;8.40;74.91;94949.59;4993272;28;20191;-77
2022/01/03 01:56:27;;;;;;;23.10;17.37;;;;;;;8.39;74.69;94954.81;4976034;28;20197;-78
2022/01/03 01:59:16;;;;;;;24.40;17.47;;;;;;;8.23;75.04;94934.75;4993175;28;20193;-76
2022/01/03 02:01:49;;;;;;;22.50;16.17;;;;;;;8.23;74.89;94932.22;4992696;28;20192;-76
2022/01/03 02:04:35;;;;;;;25.87;16.97;;;;;;;8.36;74.80;94948.19;4975043;28;20288;-76
2022/01/03 02:07:27;;;;;;;25.23;17.53;;;;;;;8.34;74.78;94942.41;4992637;28;20197;-76
2022/01/03 02:10:03;;;;;;;30.10;17.07;;;;;;;8.34;74.96;94942.41;4992564;28;20196;-76
2022/01/03 02:12:36;;;;;;;22.00;16.10;;;;;;;8.30;74.86;94920.63;4992296;28;20277;-75
2022/01/03 02:15:10;;;;;;;25.03;15.93;;;;;;;8.28;74.92;94909.72;4992686;28;20280;-76
2022/01/03 02:17:38;;;;;;;21.37;16.60;;;;;;;8.29;75.10;94906.28;4993652;28;20184;-76
2022/01/03 02:20:12;;;;;;;21.73;15.87;;;;;;;8.25;75.14;94889.59;4993113;28;20236;-76
2022/01/03 02:22:41;;;;;;;22.90;16.37;;;;;;;8.33;74.99;94901.72;4993191;28;20669;-78
2022/01/03 02:25:18;;;;;;;19.60;14.97;;;;;;;8.34;75.10;94898.28;4992942;28;20204;-77
2022/01/03 02:27:47;;;;;;;20.63;14.40;;;;;;;8.32;75.28;94884.84;4960840;28;20247;-76
2022/01/03 02:30:20;;;;;;;22.13;15.07;;;;;;;8.28;75.34;94867.22;4992328;28;20209;-76
2022/01/03 02:32:49;;;;;;;19.17;15.10;;;;;;;8.34;75.25;94875.34;4992680;28;20657;-77
2022/01/03 02:35:37;;;;;;;19.23;14.60;;;;;;;8.34;75.39;94888.91;4974973;28;20193;-76
2022/01/03 02:38:08;;;;;;;18.67;14.80;;;;;;;8.29;75.20;94889.25;4992005;28;20232;-77
2022/01/03 02:40:35;;;;;;;23.80;15.33;;;;;;;8.23;75.25;94881.25;4992882;28;20213;-76
2022/01/03 02:43:04;;;;;;;18.47;14.70;;;;;;;8.09;75.26;94858.59;4992895;28;20219;-77
2022/01/03 02:45:33;;;;;;;20.50;15.77;;;;;;;8.29;75.16;94889.25;4992303;28;20650;-77
2022/01/03 02:48:02;;;;;;;23.20;15.60;;;;;;;8.38;75.16;94897.16;4974929;28;20204;-76
2022/01/03 02:50:32;;;;;;;20.33;15.10;;;;;;;8.17;75.30;94864.72;4992025;28;20187;-77
2022/01/03 02:53:01;;;;;;;23.80;15.80;;;;;;;8.39;75.03;94906.41;4991896;28;20196;-77
2022/01/03 02:55:28;;;;;;;22.77;15.83;;;;;;;8.21;74.83;94868.66;4991615;28;20199;-77
2022/01/03 02:57:59;;;;;;;23.50;16.90;;;;;;;8.33;74.86;94883.91;4991635;28;20316;-76
2022/01/03 03:00:31;;;;;;;24.77;17.20;;;;;;;8.39;74.93;94891.13;4991548;28;20217;-76
2022/01/03 03:02:58;;;;;;;24.97;16.63;;;;;;;8.38;75.01;94882.66;4991727;28;20189;-77
2022/01/03 03:05:38;;;;;;;23.57;16.37;;;;;;;8.39;74.91;94881.72;4991440;28;20203;-76
2022/01/03 03:08:10;;;;;;;23.20;17.47;;;;;;;8.40;75.02;94875.69;4991480;28;20193;-77
2022/01/03 03:10:38;;;;;;;25.33;16.30;;;;;;;8.39;74.94;94874.09;4974627;28;20269;-75
2022/01/03 03:13:05;;;;;;;25.10;17.70;;;;;;;8.27;74.90;94857.97;4991559;28;20244;-75
2022/01/03 03:15:32;;;;;;;25.10;16.30;;;;;;;8.14;74.92;94848.84;4991373;28;20196;-76
2022/01/03 03:18:00;;;;;;;24.30;15.80;;;;;;;8.29;74.87;94868.88;4991365;28;20208;-76
2022/01/03 03:20:29;;;;;;;24.43;15.83;;;;;;;7.85;74.97;94784.91;4990740;28;20703;-76
2022/01/03 03:22:57;;;;;;;20.37;15.93;;;;;;;8.40;74.83;94877.44;4990662;28;20669;-79
2022/01/03 03:25:27;;;;;;;24.17;16.03;;;;;;;8.35;74.72;94869.31;4991393;28;20199;-77
2022/01/03 03:27:57;;;;;;;22.47;16.53;;;;;;;8.38;74.78;94869.91;4991510;28;20192;-75
2022/01/03 03:30:27;;;;;;;25.60;15.97;;;;;;;8.42;74.85;94883.22;4991051;28;20193;-76
2022/01/03 03:32:57;;;;;;;23.07;16.47;;;;;;;8.42;74.85;94893.41;4991210;28;20192;-78
2022/01/03 03:35:24;;;;;;;24.47;16.30;;;;;;;8.33;74.99;94860.97;4990768;28;20688;-79
2022/01/03 03:37:54;;;;;;;23.63;15.77;;;;;;;8.41;74.99;94873.94;4991268;28;20193;-78
2022/01/03 03:40:21;;;;;;;25.90;18.47;;;;;;;8.34;74.81;94857.50;4991300;28;20560;-78
2022/01/03 03:42:49;;;;;;;24.00;16.17;;;;;;;8.42;74.90;94866.19;4991239;28;20582;-77
2022/01/03 03:45:16;;;;;;;19.83;15.77;;;;;;;8.42;74.95;94855.19;4990888;28;20200;-75
2022/01/03 03:47:43;;;;;;;24.83;15.30;;;;;;;8.42;75.02;94862.81;4991066;28;20193;-77
2022/01/03 03:50:10;;;;;;;22.27;16.03;;;;;;;8.42;75.15;94870.47;4991035;28;20196;-77
2022/01/03 03:52:38;;;;;;;21.57;14.70;;;;;;;8.41;75.06;94867.13;4990787;28;20707;-76
2022/01/03 03:55:06;;;;;;;21.20;15.63;;;;;;;8.43;75.04;94869.56;4990429;28;20680;-75
2022/01/03 03:57:32;;;;;;;21.30;15.10;;;;;;;8.38;74.97;94856.38;4991146;28;20196;-76
2022/01/03 04:00:01;;;;;;;21.50;15.50;;;;;;;8.44;75.02;94855.88;4991082;28;20216;-79
2022/01/03 04:02:27;;;;;;;21.27;15.47;;;;;;;8.37;74.93;94853.00;4990627;28;20211;-76
2022/01/03 04:04:54;;;;;;;18.97;14.27;;;;;;;8.20;74.89;94836.47;4990804;28;20193;-75
2022/01/03 04:07:21;;;;;;;18.03;13.70;;;;;;;8.40;74.88;94855.31;4990210;28;20193;-78
2022/01/03 04:09:48;;;;;;;19.23;14.07;;;;;;;8.31;74.91;94838.16;4990771;28;20575;-76
2022/01/03 04:12:15;;;;;;;21.30;14.53;;;;;;;8.38;75.07;94852.09;4990480;28;20207;-77
2022/01/03 04:14:41;;;;;;;20.13;15.00;;;;;;;8.38;75.01;94864.81;4990793;28;20272;-77
2022/01/03 04:17:10;;;;;;;17.83;14.07;;;;;;;8.38;75.00;94867.38;4990593;28;20185;-77
2022/01/03 04:19:37;;;;;;;20.10;13.53;;;;;;;8.37;75.07;94870.81;4990419;28;20188;-75
2022/01/03 04:22:06;;;;;;;23.07;13.83;;;;;;;8.37;75.14;94875.13;4990496;28;20193;-77
2022/01/03 04:24:32;;;;;;;18.07;13.90;;;;;;;8.24;74.86;94848.00;4990518;28;20227;-75
2022/01/03 04:26:59;;;;;;;18.33;13.37;;;;;;;8.35;74.92;94872.66;4990244;28;20185;-75
2022/01/03 04:29:27;;;;;;;20.03;13.73;;;;;;;8.34;75.01;94865.97;4990397;28;20630;-75
2022/01/03 04:31:54;;;;;;;16.33;12.87;;;;;;;8.32;75.01;94860.16;4990129;28;20199;-76
2022/01/03 04:34:22;;;;;;;19.07;13.30;;;;;;;8.16;75.07;94830.00;4990810;28;20676;-76
2022/01/03 04:36:49;;;;;;;17.67;12.60;;;;;;;8.30;75.10;94854.38;4994333;28;20196;-76
2022/01/03 04:39:16;;;;;;;16.53;12.67;;;;;;;8.25;75.09;94841.19;4994074;28;20193;-77
2022/01/03 04:41:42;;;;;;;16.33;12.83;;;;;;;8.31;75.03;94858.53;4994203;28;20228;-76
2022/01/03 04:44:09;;;;;;;16.83;12.67;;;;;;;8.28;75.13;94851.94;4993967;28;20665;-76
2022/01/03 04:46:37;;;;;;;18.97;12.87;;;;;;;8.28;75.09;94861.31;4994420;28;20181;-76
2022/01/03 04:49:06;;;;;;;14.87;11.47;;;;;;;8.20;75.10;94849.22;4993944;28;20181;-75
2022/01/03 04:51:35;;;;;;;17.73;12.57;;;;;;;8.21;75.13;94868.66;4994194;28;20235;-76
2022/01/03 04:54:01;;;;;;;17.40;13.20;;;;;;;8.27;75.11;94869.91;4994012;28;20197;-76
2022/01/03 04:56:29;;;;;;;15.23;11.50;;;;;;;8.19;75.21;94875.59;4994076;28;20575;-76
2022/01/03 04:58:56;;;;;;;16.97;11.73;;;;;;;8.24;75.27;94883.69;4994181;28;20197;-76
2022/01/03 05:01:23;;;;;;;14.37;11.87;;;;;;;8.25;75.02;94889.59;4993840;28;20576;-78
2022/01/03 05:03:51;;;;;;;17.40;12.60;;;;;;;8.23;75.07;94894.00;4993790;28;20208;-76
2022/01/03 05:06:18;;;;;;;15.47;11.80;;;;;;;8.12;75.40;94881.25;4994136;28;20192;-79
2022/01/03 05:08:47;;;;;;;14.47;11.03;;;;;;;8.19;74.94;94892.63;4993618;28;20197;-76
2022/01/03 05:11:14;;;;;;;19.33;13.30;;;;;;;8.17;74.97;94887.66;4993739;28;20244;-79
2022/01/03 05:13:40;;;;;;;16.47;11.40;;;;;;;8.16;74.95;94885.19;4993887;28;20678;-75
2022/01/03 05:16:08;;;;;;;17.43;12.23;;;;;;;8.12;74.92;94884.66;4977028;28;20859;-78
2022/01/03 05:18:35;;;;;;;16.90;12.23;;;;;;;8.12;75.01;94888.91;4993578;28;20192;-76
2022/01/03 05:21:01;;;;;;;18.30;11.97;;;;;;;8.02;74.88;94866.69;4993755;28;20213;-78
2022/01/03 05:23:28;;;;;;;20.77;12.40;;;;;;;8.10;74.94;94871.22;4993449;28;20548;-80
2022/01/03 05:25:56;;;;;;;16.73;12.27;;;;;;;8.10;75.12;94872.94;4993477;28;20200;-79
2022/01/03 05:28:23;;;;;;;19.20;12.27;;;;;;;8.03;75.19;94862.41;4993374;28;20604;-76
2022/01/03 05:30:50;;;;;;;14.77;11.67;;;;;;;7.95;75.13;94857.13;4993058;28;20211;-77
2022/01/03 05:33:17;;;;;;;14.07;11.90;;;;;;;7.95;75.15;94854.56;4993822;28;20232;-76
2022/01/03 05:35:43;;;;;;;15.90;12.20;;;;;;;8.06;75.21;94872.38;4993221;28;20649;-76
2022/01/03 05:38:10;;;;;;;16.30;12.20;;;;;;;8.07;75.04;94863.00;4993225;28;20205;-77
2022/01/03 05:40:37;;;;;;;20.87;12.57;;;;;;;7.98;75.06;94847.47;4993027;28;20268;-76
2022/01/03 05:43:06;;;;;;;17.87;13.10;;;;;;;8.05;74.99;94868.22;4993553;28;20223;-75
2022/01/03 05:45:33;;;;;;;15.67;12.00;;;;;;;8.04;75.05;94861.50;4992612;28;20192;-75
2022/01/03 05:48:00;;;;;;;17.80;11.70;;;;;;;8.01;74.97;94867.63;4992950;28;20197;-75
2022/01/03 05:50:29;;;;;;;17.00;12.27;;;;;;;8.01;74.95;94860.00;4993193;28;20544;-75
2022/01/03 05:52:57;;;;;;;17.60;11.73;;;;;;;8.01;75.10;94875.28;4992709;28;20240;-76
2022/01/03 05:55:24;;;;;;;17.03;12.60;;;;;;;8.01;74.99;94875.28;4993047;28;20193;-78
2022/01/03 05:57:51;;;;;;;14.33;12.07;;;;;;;7.98;75.10;94864.50;4993294;28;20185;-76
2022/01/03 06:00:22;;;;;;;14.90;12.17;;;;;;;8.01;75.04;94879.56;4975688;28;20204;-78
2022/01/03 06:02:54;;;;;;;16.63;11.90;;;;;;;8.00;75.02;94875.41;4992479;28;20208;-77
2022/01/03 06:05:38;;;;;;;17.10;12.47;;;;;;;7.99;74.93;94874.59;4992854;28;20197;-77
2022/01/03 06:08:06;;;;;;;18.37;12.53;;;;;;;7.99;75.04;94879.69;4992989;28;20192;-77
2022/01/03 06:10:34;;;;;;;15.03;11.50;;;;;;;7.98;75.03;94870.41;4992471;28;20665;-77
2022/01/03 06:13:01;;;;;;;17.87;12.13;;;;;;;8.01;75.04;94887.19;4992689;28;20197;-77
2022/01/03 06:15:30;;;;;;;15.03;11.77;;;;;;;8.01;75.12;94879.56;4992280;28;20201;-80
2022/01/03 06:17:57;;;;;;;18.20;12.53;;;;;;;8.04;75.12;94890.31;4992293;28;20657;-76
2022/01/03 06:20:25;;;;;;;18.60;11.73;;;;;;;8.07;74.99;94883.38;4992349;28;20189;-77
2022/01/03 06:22:52;;;;;;;16.47;12.77;;;;;;;8.10;75.03;94898.41;4992371;28;20202;-79
2022/01/03 06:25:20;;;;;;;16.50;12.20;;;;;;;8.14;75.10;94898.06;4975374;28;20197;-76
2022/01/03 06:27:48;;;;;;;16.93;12.63;;;;;;;8.17;74.95;94897.84;4992868;28;20185;-77
2022/01/03 06:30:15;;;;;;;15.43;12.47;;;;;;;8.22;75.04;94894.94;4992421;28;20201;-78
2022/01/03 06:32:53;;;;;;;15.70;12.37;;;;;;;8.07;75.03;94857.91;4992482;28;20272;-78
2022/01/03 06:35:23;;;;;;;24.70;12.70;;;;;;;8.29;74.83;94886.72;4992287;28;20209;-77
2022/01/03 06:37:50;;;;;;;20.03;12.93;;;;;;;8.05;74.92;94835.09;4992088;28;20197;-75
2022/01/03 06:40:17;;;;;;;20.03;14.07;;;;;;;8.38;74.74;94880.13;4992596;28;20243;-76
2022/01/03 06:42:44;;;;;;;16.43;12.63;;;;;;;8.43;74.62;94885.66;4991550;28;20193;-76
2022/01/03 06:45:10;;;;;;;19.53;13.17;;;;;;;8.49;74.53;94884.34;4991952;28;20188;-79
2022/01/03 06:47:37;;;;;;;18.90;12.40;;;;;;;8.54;74.59;94877.97;4991750;28;20614;-78
2022/01/03 06:50:06;;;;;;;17.23;13.43;;;;;;;8.57;74.29;94878.66;4992103;28;20193;-78
2022/01/03 06:52:33;;;;;;;17.90;13.30;;;;;;;8.71;74.16;94875.81;4991320;28;20248;-76
2022/01/03 06:55:00;;;;;;;17.23;12.80;;;;;;;8.85;73.99;94872.16;4991997;28;20189;-75
2022/01/03 06:57:28;;;;;;;17.30;12.77;;;;;;;9.08;73.84;94860.94;4991428;28;20577;-76
2022/01/03 06:59:54;;;;;;;15.97;12.93;;;;;;;9.46;73.41;94872.31;4991931;28;20205;-78
2022/01/03 07:02:21;;;;;;;18.37;12.70;;;;;;;9.73;73.47;94887.09;4991531;28;20279;-76
2022/01/03 07:04:48;;;;;;;17.60;12.87;;;;;;;9.92;73.32;94878.69;4991751;28;20208;-76
2022/01/03 07:07:16;;;;;;;18.13;13.00;;;;;;;10.32;73.21;94893.22;4991335;28;20196;-78
2022/01/03 07:09:43;;;;;;;21.37;14.03;;;;;;;10.32;72.96;94834.44;4991388;28;20215;-76
2022/01/03 07:12:11;;;;;;;20.67;14.37;;;;;;;11.04;72.93;94886.03;4991652;28;20185;-75
2022/01/03 07:20:10;;;;;;;18.60;13.53;;;;;;;12.20;71.44;94861.03;4991502;28;20247;-76
2022/01/03 07:22:40;;;;;;;14.80;12.57;;;;;;;12.79;70.80;94875.13;4973433;28;20319;-76
2022/01/03 07:25:10;;;;;;;20.33;12.90;;;;;;;13.25;69.86;94863.00;4991856;28;20271;-78
2022/01/03 07:27:38;;;;;;;19.10;12.53;;;;;;;13.77;68.90;94868.13;4990540;28;20200;-75
2022/01/03 07:30:06;;;;;;;19.73;12.40;;;;;;;14.19;68.07;94862.22;4991260;28;20188;-76
2022/01/03 07:32:33;;;;;;;17.07;12.43;;;;;;;14.60;67.16;94854.66;4991079;28;20220;-75
2022/01/03 07:35:03;;;;;;;16.23;12.17;;;;;;;14.99;66.00;94853.09;4991140;28;20204;-75
2022/01/03 07:37:31;;;;;;;18.70;13.00;;;;;;;15.24;64.96;94825.56;4973698;28;20953;-74
2022/01/03 07:40:00;;;;;;;15.40;11.87;;;;;;;15.71;63.93;94852.38;4990990;28;20288;-75
2022/01/03 07:42:28;;;;;;;17.33;11.97;;;;;;;16.11;62.73;94860.97;4990880;28;20233;-76
2022/01/03 07:44:55;;;;;;;16.03;12.37;;;;;;;16.27;61.76;94853.13;4990847;28;20197;-75
2022/01/03 07:47:22;;;;;;;16.53;12.83;;;;;;;16.36;61.35;94843.59;4991437;28;20186;-75
2022/01/03 07:49:49;;;;;;;18.50;13.77;;;;;;;16.69;60.37;94878.56;4991267;28;20193;-78
2022/01/03 07:52:16;;;;;;;18.27;13.87;;;;;;;16.64;59.71;94877.50;4990943;28;20232;-76
2022/01/03 07:54:42;;;;;;;20.80;15.20;;;;;;;16.55;58.95;94872.38;4990890;28;20196;-77
2022/01/03 07:57:11;;;;;;;17.60;14.03;;;;;;;16.51;58.27;94871.09;4991368;28;20188;-76
2022/01/03 07:59:40;;;;;;;18.53;13.67;;;;;;;16.28;57.76;94847.03;4990863;28;20196;-76
2022/01/03 08:02:07;;;;;;;16.73;13.07;;;;;;;16.30;57.36;94865.72;4990839;28;20235;-75
2022/01/03 08:04:37;;;;;;;16.57;13.47;;;;;;;16.13;57.41;94870.13;4973134;28;20192;-76
2022/01/03 08:07:05;;;;;;;15.57;11.53;;;;;;;15.94;56.92;94835.22;4990895;28;20284;-77
2022/01/03 08:09:32;;;;;;;15.37;12.37;;;;;;;16.44;55.51;94844.34;4972349;28;20216;-76
2022/01/03 08:12:00;;;;;;;13.40;10.70;;;;;;;17.02;54.44;94870.66;4990902;28;20197;-76
2022/01/03 08:14:28;;;;;;;13.97;11.20;;;;;;;17.01;53.59;94862.09;4990346;28;20197;-76
2022/01/03 08:16:55;;;;;;;14.57;10.70;;;;;;;16.91;53.76;94874.44;4973436;28;20196;-76
2022/01/03 08:19:22;;;;;;;12.43;10.40;;;;;;;16.60;53.90;94863.31;4990792;28;20243;-76
2022/01/03 08:21:49;;;;;;;13.07;10.50;;;;;;;16.44;54.07;94874.53;4990667;28;20220;-76
2022/01/03 08:24:16;;;;;;;12.23;9.80;;;;;;;16.28;54.24;94881.38;4990775;28;20641;-75
2022/01/03 08:26:43;;;;;;;13.00;10.43;;;;;;;16.17;54.44;94873.19;4990535;28;20189;-78
2022/01/03 08:29:11;;;;;;;15.63;10.63;;;;;;;16.07;54.11;94818.41;4990385;28;20588;-76
2022/01/03 08:31:44;;;;;;;12.50;10.23;;;;;;;16.88;53.13;94873.97;4990289;28;20275;-77
2022/01/03 08:34:12;;;;;;;12.47;10.00;;;;;;;17.42;51.80;94861.75;4990625;28;20209;-77
2022/01/03 08:36:40;;;;;;;12.30;10.20;;;;;;;17.61;51.29;94851.88;4989919;28;20692;-77
2022/01/03 08:39:09;;;;;;;13.57;10.13;;;;;;;17.71;50.94;94847.28;4973039;28;20196;-76
2022/01/03 08:41:36;;;;;;;13.67;10.50;;;;;;;17.88;50.72;94866.03;4989608;28;20360;-78
2022/01/03 08:44:07;;;;;;;12.60;10.80;;;;;;;17.82;50.61;94854.59;4990511;28;20192;-79
2022/01/03 08:46:34;;;;;;;10.70;9.07;;;;;;;17.64;50.80;94846.38;4990145;28;20197;-76
2022/01/03 08:49:03;;;;;;;14.93;10.53;;;;;;;17.37;51.27;94835.63;4990794;28;20185;-77
2022/01/03 08:51:30;;;;;;;11.73;10.20;;;;;;;17.10;51.63;94826.66;4989829;28;20241;-76
2022/01/03 08:53:57;;;;;;;12.73;10.73;;;;;;;16.85;52.17;94822.66;4990260;28;20220;-77
2022/01/03 08:56:24;;;;;;;11.77;9.60;;;;;;;16.61;52.52;94819.22;4990090;28;20625;-75
2022/01/03 08:58:51;;;;;;;12.07;9.93;;;;;;;16.41;52.86;94821.47;4990740;28;20200;-76
2022/01/03 09:01:18;;;;;;;13.03;10.17;;;;;;;16.24;53.27;94807.03;4989843;28;20224;-76
2022/01/03 09:03:50;;;;;;;14.93;9.67;;;;;;;16.07;53.57;94790.03;4990661;28;20189;-76
2022/01/03 09:06:22;;;;;;;12.50;9.70;;;;;;;16.08;53.84;94802.75;4990454;28;20209;-77
2022/01/03 09:08:49;;;;;;;13.20;10.23;;;;;;;15.91;53.96;94803.81;4989938;28;20200;-76
2022/01/03 09:11:19;;;;;;;12.40;10.17;;;;;;;15.91;54.23;94817.50;4990041;28;20193;-75
2022/01/03 09:13:46;;;;;;;12.17;9.97;;;;;;;15.79;54.56;94817.06;4989980;28;20574;-77
2022/01/03 09:16:13;;;;;;;13.93;10.20;;;;;;;15.84;54.56;94813.97;4973661;28;20228;-78
2022/01/03 09:18:41;;;;;;;12.50;10.37;;;;;;;15.80;54.78;94799.81;4990483;28;20193;-80
2022/01/03 09:21:09;;;;;;;13.17;10.60;;;;;;;15.70;54.99;94794.84;4991129;28;20609;-80
2022/01/03 09:23:41;;;;;;;14.60;10.33;;;;;;;15.75;54.98;94802.09;4993634;28;20235;-80
2022/01/03 09:28:53;;;;;;;13.00;10.10;;;;;;;15.86;55.12;94790.63;4994123;28;20263;-76
2022/01/03 09:31:23;;;;;;;12.53;10.93;;;;;;;15.88;54.90;94779.16;4993671;28;20198;-79
2022/01/03 09:33:50;;;;;;;13.50;10.00;;;;;;;15.96;54.72;94780.88;4993577;28;20197;-79
2022/01/03 09:36:17;;;;;;;13.97;10.37;;;;;;;15.95;54.94;94777.50;4993807;28;20591;-80
2022/01/03 09:38:45;;;;;;;11.63;9.70;;;;;;;15.95;54.95;94774.13;4993076;28;20201;-79
2022/01/03 09:41:14;;;;;;;11.40;9.77;;;;;;;15.96;54.94;94773.16;4993321;28;20204;-79
2022/01/03 09:43:49;;;;;;;12.90;10.70;;;;;;;15.97;54.93;94761.84;4992868;28;20200;-77
2022/01/03 09:46:22;;;;;;;12.43;9.93;;;;;;;16.00;55.07;94761.53;4993319;28;20282;-78
2022/01/03 09:48:53;;;;;;;12.63;10.37;;;;;;;16.00;54.90;94752.00;4992845;28;20197;-75
2022/01/03 09:51:22;;;;;;;12.33;11.00;;;;;;;16.08;55.01;94751.16;4993163;28;20719;-76
2022/01/03 09:53:52;;;;;;;13.83;10.43;;;;;;;16.19;54.79;94752.53;4992378;28;20193;-75
2022/01/03 09:56:20;;;;;;;12.90;10.30;;;;;;;16.27;54.68;94750.72;4993262;28;20343;-79
2022/01/03 09:58:47;;;;;;;15.07;10.07;;;;;;;16.30;54.76;94741.84;4993095;28;20190;-75
2022/01/03 10:01:15;;;;;;;14.23;10.80;;;;;;;16.35;54.52;94742.13;4993350;28;20212;-75
2022/01/03 10:03:47;;;;;;;13.27;10.77;;;;;;;16.24;54.41;94714.16;4992900;28;20197;-80
2022/01/03 10:06:17;;;;;;;12.00;10.43;;;;;;;16.15;54.49;94682.44;4993261;28;20247;-76
2022/01/03 10:08:47;;;;;;;12.37;10.13;;;;;;;16.38;54.35;94715.19;4975311;28;20217;-81
2022/01/03 10:11:16;;;;;;;13.37;10.47;;;;;;;16.45;54.44;94716.91;4993111;28;20201;-78
2022/01/03 10:13:44;;;;;;;17.20;10.63;;;;;;;16.50;54.38;94717.19;4975333;28;20208;-78
2022/01/03 10:16:11;;;;;;;15.83;11.03;;;;;;;16.55;54.38;94714.06;4992902;28;20196;-77
2022/01/03 10:18:39;;;;;;;16.30;11.50;;;;;;;16.59;54.26;94711.97;4992615;28;20197;-81
2022/01/03 10:21:07;;;;;;;14.27;10.90;;;;;;;16.61;54.21;94695.28;4992835;28;20577;-80
2022/01/03 10:23:34;;;;;;;13.93;10.73;;;;;;;16.65;53.93;94699.13;4992076;28;20228;-78
2022/01/03 10:26:20;;;;;;;15.80;12.40;;;;;;;16.71;54.03;94698.47;4992604;28;20681;-82
2022/01/03 10:28:47;;;;;;;13.03;11.60;;;;;;;16.76;53.93;94690.22;4992708;28;20212;-76
2022/01/03 10:31:16;;;;;;;15.50;11.33;;;;;;;16.82;53.76;94694.66;4992487;28;20189;-79
2022/01/03 10:33:44;;;;;;;16.83;11.90;;;;;;;16.86;53.85;94684.78;4974475;28;20687;-79
2022/01/03 10:36:27;;;;;;;17.60;12.93;;;;;;;16.93;53.57;94668.41;4992372;28;20201;-78
2022/01/03 10:38:57;;;;;;;18.77;12.47;;;;;;;16.92;53.29;94661.63;4993072;28;20203;-80
2022/01/03 10:41:31;;;;;;;17.67;13.07;;;;;;;17.01;53.32;94675.25;4993122;28;20809;-77
2022/01/03 10:44:00;;;;;;;17.80;13.13;;;;;;;17.02;53.14;94666.53;4975202;28;20204;-80
2022/01/03 10:46:29;;;;;;;17.07;13.17;;;;;;;17.03;52.96;94655.22;4974883;28;20200;-82
2022/01/03 10:49:08;;;;;;;17.23;13.50;;;;;;;17.05;53.03;94648.09;4991806;28;20758;-76
2022/01/03 10:51:36;;;;;;;18.43;14.03;;;;;;;17.10;52.90;94647.53;4991377;28;20233;-78
2022/01/03 10:54:08;;;;;;;19.47;13.67;;;;;;;16.86;52.74;94597.75;4991444;28;20193;-76
2022/01/03 10:56:41;;;;;;;16.77;13.40;;;;;;;16.99;52.68;94610.06;4991886;28;20200;-78
2022/01/03 10:59:24;;;;;;;18.60;14.23;;;;;;;17.11;52.71;94624.13;4991940;28;20185;-79
2022/01/03 11:02:05;;;;;;;22.13;14.23;;;;;;;17.20;52.67;94637.75;4991413;28;20591;-77
2022/01/03 11:04:39;;;;;;;23.93;14.50;;;;;;;16.71;52.60;94563.34;4991361;28;20208;-77
2022/01/03 11:13:17;;;;;;;18.80;13.83;;;;;;;16.92;52.89;94609.94;4992027;28;20240;-81
2022/01/03 11:15:55;;;;;;;24.17;16.87;;;;;;;16.82;53.18;94608.63;4991183;28;20197;-76
2022/01/03 11:18:25;;;;;;;22.13;15.40;;;;;;;16.79;53.27;94604.59;4991514;28;20189;-76
2022/01/03 11:21:28;;;;;;;21.83;16.10;;;;;;;16.79;53.17;94602.81;4991399;28;20568;-82
2022/01/03 11:24:05;;;;;;;27.17;16.80;;;;;;;16.64;53.17;94575.38;4991385;28;20231;-80
2022/01/03 11:26:34;;;;;;;19.87;15.33;;;;;;;16.64;52.84;94565.84;4991647;28;20189;-78
2022/01/03 11:29:04;;;;;;;23.33;16.70;;;;;;;16.70;52.99;94565.13;4990942;28;20263;-76
2022/01/03 11:31:38;;;;;;;23.77;16.43;;;;;;;16.88;52.69;94577.75;4990846;28;20193;-78
2022/01/03 11:34:07;;;;;;;21.87;17.13;;;;;;;16.91;52.75;94573.97;4991182;28;20207;-76
2022/01/03 11:36:35;;;;;;;24.67;16.80;;;;;;;16.93;52.69;94569.44;4974090;28;20649;-79
2022/01/03 11:39:09;;;;;;;22.23;16.90;;;;;;;16.94;52.82;94576.22;4991472;28;20208;-78
2022/01/03 11:41:41;;;;;;;22.03;16.13;;;;;;;16.90;52.86;94573.19;4991401;28;20209;-77
2022/01/03 11:44:30;;;;;;;23.53;16.40;;;;;;;15.65;52.94;94383.88;4989880;28;20229;-77
2022/01/03 11:46:58;;;;;;;22.77;15.93;;;;;;;16.82;52.96;94560.34;4991175;28;20181;-78
2022/01/03 11:49:26;;;;;;;22.73;16.70;;;;;;;16.89;52.78;94560.44;4973810;28;20645;-81